Date,TemperatureHighF,TemperatureAvgF,TemperatureLowF,DewpointHighF,DewpointAvgF,DewpointLowF,HumidityHigh,HumidityAvg,HumidityLow,PressureMaxIn,PressureMinIn,WindSpeedMaxMPH,WindSpeedAvgMPH,GustSpeedMaxMPH,PrecipitationSumIn
2013-3-1,30,25,17,12,10,6,61,52,44,30.26,30.15,0,0,0,0.00
2013-3-2,33,21,8,10,5,-1,78,51,35,30.26,30.09,0,0,0,0.00
2013-3-3,35,27,20,11,6,2,53,41,33,30.09,29.91,0,0,0,0.00
2013-3-4,29,26,24,22,14,6,88,63,38,29.97,29.88,0,0,0,0.00
2013-3-5,31,26,22,24,21,16,92,82,65,30.20,29.91,0,0,0,0.00
2013-3-6,29,23,14,17,12,8,76,65,50,30.32,30.20,0,0,0,0.00
2013-3-7,34,23,9,18,10,3,80,60,42,30.29,30.17,0,0,0,0.00
2013-3-8,40,30,20,26,19,11,78,63,50,30.23,30.00,0,0,0,0.13
2013-3-9,38,36,34,37,34,24,98,94,65,30.00,29.61,0,0,0,0.39
2013-3-10,35,33,30,35,27,20,98,77,64,29.88,29.70,0,0,0,0.04
2013-3-11,31,28,23,20,17,13,72,64,51,29.79,29.67,0,0,0,0.00
2013-3-12,30,25,21,14,10,4,69,52,39,30.09,29.76,0,0,0,0.00
2013-3-13,33,23,13,11,9,6,77,55,38,30.29,30.12,0,0,0,0.00
2013-3-14,43,32,25,24,20,12,87,61,44,30.15,29.94,0,0,0,0.00
2013-3-15,34,32,24,32,26,21,95,81,68,29.94,29.76,0,0,0,0.09
2013-3-16,26,21,13,21,8,-4,88,59,42,30.15,29.82,0,0,0,0.00
2013-3-17,29,19,6,12,1,-10,53,45,40,30.17,29.79,0,0,0,0.00
2013-3-18,30,22,12,27,13,0,92,66,49,29.79,29.52,0,0,0,0.00
2013-3-19,23,14,6,3,-2,-9,59,50,38,30.09,29.73,0,0,0,0.00
2013-3-20,22,13,5,1,-6,-14,45,41,39,30.12,30.03,0,0,0,0.00
2013-3-21,27,17,5,6,-2,-12,51,44,41,30.03,29.94,0,0,0,0.00
2013-3-22,36,24,11,13,6,-2,58,46,35,30.00,29.94,0,0,0,0.00
2013-3-23,39,29,17,15,12,7,67,48,36,30.06,29.97,0,0,0,0.00
2013-3-24,34,30,27,23,18,14,80,61,48,30.00,29.88,0,0,0,0.00
2013-3-25,38,31,22,16,13,10,59,48,39,30.12,29.97,0,0,0,0.00
2013-3-26,41,32,25,18,15,14,64,51,39,30.20,30.12,0,0,0,0.00
2013-3-27,45,34,24,18,15,12,63,46,32,30.23,30.20,0,0,0,0.00
2013-3-28,48,35,22,23,17,14,75,50,31,30.23,30.17,0,0,0,0.00
2013-3-29,54,40,30,33,25,19,71,56,38,30.17,29.97,0,0,0,0.00
2013-3-30,54,44,36,44,34,29,94,70,49,29.97,29.76,0,0,0,0.39
2013-3-31,39,34,24,32,20,8,92,59,32,30.00,29.70,0,0,0,0.00